Portada
METAR-TAF:

METAR-TAF

Aeroports :

Belo Horizonte, Minas Gerais, Brasil

latitud: 19-54-33S, longitud: 043-59-21W, altitud: 928 m

Observació

L'informe es va fer fa 3 hores i 10 minuts, a les 20:00 UTC
Vent 13 kt del Est
Temperatura 18°C
Humitat 56%
Pressió 1026 hPa
Visibilitat 10 km o més
Cel ennuvolat a una alçada de 3000 ft

METAR: SBPR 192000Z 09013KT 9999 BKN030 18/09 Q1026

Hora: 20:10 (23:10 UTC)


TAF: manca

Observacions i pronòstics meteorològics de més de 4000 aeroports (METAR i TAF).

Les estacions disponibles són els punts grocs i vermells al mapa.

Posi el ratolí al punt desitjat per veure el nom de l'estació.

Feu clic per veure les observacions i els pronòstics meteorològics.

Per canviar el mapa: feu clic els botons verds amb una creu de color negre per apropar; al botó verd amb un guió per allunyar la imatge; o en les fletxes verdes per a mapes adjacents.


METAR-TAF: